Time;durP1;ratioP1;P1;durP2;ratioP2;P2;SDS_P1;SDS_P2;PMS_P1;PMS_P2;Temp;Humidity;BMP_temperature;BMP_pressure;BME280_temperature;BME280_humidity;BME280_pressure;Samples;Min_cycle;Max_cycle;Signal;HPM_P1;HPM_P2
2023/04/30 00:02:17;;;;;;;18.93;7.90;;;8.30;99.90;;;;;;5070412;28;20036;-75
2023/04/30 00:04:43;;;;;;;12.07;7.23;;;8.30;99.90;;;;;;5061012;28;20028;-62
2023/04/30 00:07:08;;;;;;;21.07;7.77;;;8.40;99.90;;;;;;5073602;28;20029;-62
2023/04/30 00:09:34;;;;;;;16.93;7.37;;;8.50;99.90;;;;;;5106942;28;20086;-62
2023/04/30 00:12:00;;;;;;;14.00;7.80;;;8.40;99.90;;;;;;5073277;28;20033;-63
2023/04/30 00:14:25;;;;;;;23.37;7.70;;;8.50;99.90;;;;;;5062610;28;20109;-62
2023/04/30 00:16:51;;;;;;;13.70;6.77;;;8.40;99.90;;;;;;5059319;28;20407;-62
2023/04/30 00:19:16;;;;;;;15.80;6.97;;;8.40;99.90;;;;;;5074143;28;20020;-76
2023/04/30 00:21:42;;;;;;;18.13;6.60;;;8.40;99.90;;;;;;5070388;28;20424;-62
2023/04/30 00:24:08;;;;;;;16.83;7.57;;;8.30;99.90;;;;;;5074552;28;20032;-62
2023/04/30 00:26:33;;;;;;;17.90;8.20;;;8.30;99.90;;;;;;5074100;28;20480;-62
2023/04/30 00:28:59;;;;;;;16.27;7.97;;;8.30;99.90;;;;;;5074566;28;20028;-63
2023/04/30 00:31:25;;;;;;;16.37;7.67;;;8.30;99.90;;;;;;5073814;28;20331;-62
2023/04/30 00:33:50;;;;;;;15.50;7.20;;;8.30;99.90;;;;;;5072411;28;20082;-62
2023/04/30 00:36:16;;;;;;;18.17;7.00;;;8.30;99.90;;;;;;5072700;28;20032;-77
2023/04/30 00:38:42;;;;;;;13.73;6.07;;;8.30;99.90;;;;;;5073479;28;20032;-62
2023/04/30 00:41:07;;;;;;;13.20;7.57;;;8.20;99.90;;;;;;5074500;28;20028;-62
2023/04/30 00:43:33;;;;;;;12.23;6.00;;;8.10;99.90;;;;;;5072575;28;20328;-62
2023/04/30 00:45:59;;;;;;;15.27;7.70;;;8.10;99.90;;;;;;5066898;28;20033;-63
2023/04/30 00:48:25;;;;;;;15.57;7.80;;;8.00;99.90;;;;;;5054631;28;20025;-76
2023/04/30 00:50:51;;;;;;;20.85;8.18;;;8.00;99.90;;;;;;5072566;28;20021;-62
2023/04/30 00:53:18;;;;;;;12.88;7.18;;;8.00;99.90;;;;;;5072391;28;20093;-62
2023/04/30 00:55:44;;;;;;;;;;;8.00;99.90;;;;;;5073881;28;20016;-62
2023/04/30 00:58:10;;;;;;;15.23;7.53;;;8.00;99.90;;;;;;5073122;28;19927;-62
2023/04/30 01:00:35;;;;;;;15.20;8.07;;;8.00;99.90;;;;;;5077744;28;20051;-62
2023/04/30 01:03:01;;;;;;;14.97;8.30;;;8.10;99.90;;;;;;5077657;28;20435;-62
2023/04/30 01:05:27;;;;;;;19.17;8.00;;;8.00;99.90;;;;;;5062988;28;20033;-62
2023/04/30 01:07:55;;;;;;;23.37;9.40;;;8.00;99.90;;;;;;5076334;28;20028;-62
2023/04/30 01:10:27;;;;;;;18.92;9.07;;;7.90;99.90;;;;;;5077817;28;20407;-62
2023/04/30 01:13:07;;;;;;;17.73;8.45;;;7.70;99.90;;;;;;5071273;28;20033;-62
2023/04/30 01:15:52;;;;;;;16.58;8.15;;;7.60;99.90;;;;;;5074373;28;20028;-62
2023/04/30 01:18:36;;;;;;;13.18;7.10;;;7.50;99.90;;;;;;5064523;28;20090;-62
2023/04/30 01:21:04;;;;;;;17.65;8.00;;;7.50;99.90;;;;;;5076665;28;20028;-62
2023/04/30 01:24:07;;;;;;;14.05;7.78;;;7.50;99.90;;;;;;5092929;28;20032;-62
2023/04/30 01:26:58;;;;;;;14.00;8.00;;;7.40;99.90;;;;;;5072374;28;20032;-62
2023/04/30 01:29:25;;;;;;;17.10;7.93;;;7.40;99.90;;;;;;5077305;28;20048;-62
2023/04/30 01:31:51;;;;;;;17.05;7.75;;;7.30;99.90;;;;;;5076267;28;20025;-63
2023/04/30 01:34:17;;;;;;;22.17;8.30;;;7.30;99.90;;;;;;5076118;28;20068;-62
2023/04/30 01:36:43;;;;;;;12.40;7.67;;;7.30;99.90;;;;;;5070826;28;20047;-62
2023/04/30 01:39:20;;;;;;;19.43;7.50;;;7.30;99.90;;;;;;5061509;28;20071;-62
2023/04/30 01:42:04;;;;;;;18.95;6.97;;;7.20;99.90;;;;;;5064476;28;20017;-62
2023/04/30 01:44:55;;;;;;;12.48;7.28;;;7.10;99.90;;;;;;5075034;28;20027;-61
2023/04/30 01:47:39;;;;;;;15.48;6.85;;;7.10;99.90;;;;;;5061057;28;20040;-62
2023/04/30 01:50:33;;;;;;;14.20;6.78;;;7.10;99.90;;;;;;5064595;28;20051;-62
2023/04/30 01:53:00;;;;;;;11.43;6.82;;;7.10;99.90;;;;;;5076213;28;20056;-61
2023/04/30 01:55:42;;;;;;;20.30;7.20;;;7.00;99.90;;;;;;5069106;28;20098;-62
2023/04/30 01:58:12;;;;;;;13.45;7.45;;;7.00;99.90;;;;;;5076728;28;20013;-62
2023/04/30 02:00:38;;;;;;;10.82;6.43;;;7.00;99.90;;;;;;5076412;28;20027;-70
2023/04/30 02:03:04;;;;;;;13.83;6.50;;;6.90;99.90;;;;;;5091939;28;20028;-62
2023/04/30 02:05:30;;;;;;;15.07;7.10;;;6.90;99.90;;;;;;5075453;28;20133;-62
2023/04/30 02:07:55;;;;;;;12.93;6.80;;;6.90;99.90;;;;;;5074942;28;20025;-62
2023/04/30 02:10:23;;;;;;;11.27;6.33;;;6.90;99.90;;;;;;5075138;28;20031;-62
2023/04/30 02:12:49;;;;;;;10.13;6.15;;;6.90;99.90;;;;;;5064605;28;20086;-62
2023/04/30 02:15:15;;;;;;;12.10;6.40;;;6.90;99.90;;;;;;5076735;28;20049;-78
2023/04/30 02:17:41;;;;;;;16.47;7.60;;;6.90;99.90;;;;;;5070153;28;20116;-78
2023/04/30 02:20:08;;;;;;;15.87;7.10;;;6.80;99.90;;;;;;5075768;28;20059;-78
2023/04/30 02:22:34;;;;;;;11.88;6.63;;;6.90;99.90;;;;;;5059664;28;20044;-78
2023/04/30 02:25:00;;;;;;;14.18;7.25;;;6.80;99.90;;;;;;5069852;28;20025;-77
2023/04/30 02:27:26;;;;;;;17.90;8.10;;;6.80;99.90;;;;;;5100661;28;20025;-79
2023/04/30 02:29:52;;;;;;;15.60;7.33;;;6.90;99.90;;;;;;5105196;28;20052;-78
2023/04/30 02:32:18;;;;;;;16.42;5.68;;;6.80;99.90;;;;;;5105077;28;20043;-78
2023/04/30 02:34:44;;;;;;;11.17;6.63;;;6.90;99.90;;;;;;5071336;28;20024;-78
2023/04/30 02:37:10;;;;;;;13.13;6.28;;;6.80;99.90;;;;;;5074139;28;20077;-78
2023/04/30 02:39:36;;;;;;;11.33;6.33;;;6.80;99.90;;;;;;5071687;28;20025;-77
2023/04/30 02:42:03;;;;;;;10.70;6.27;;;6.80;99.90;;;;;;5071006;28;20381;-78
2023/04/30 02:44:29;;;;;;;;;;;6.80;99.90;;;;;;5071740;28;20021;-77
2023/04/30 02:46:54;;;;;;;16.27;4.27;;;6.80;99.90;;;;;;5073065;28;20101;-77
2023/04/30 02:49:20;;;;;;;12.57;6.43;;;6.70;99.90;;;;;;5074242;28;20040;-77
2023/04/30 02:51:46;;;;;;;11.33;6.63;;;6.70;99.90;;;;;;5073972;28;20475;-78
2023/04/30 02:54:11;;;;;;;25.57;6.17;;;6.70;99.90;;;;;;5070124;28;20024;-78
2023/04/30 02:56:40;;;;;;;11.20;4.20;;;6.70;99.90;;;;;;5070884;28;20079;-78
2023/04/30 02:59:07;;;;;;;7.40;4.30;;;6.70;99.90;;;;;;5065059;28;20021;-78
2023/04/30 03:01:32;;;;;;;9.75;4.13;;;6.70;99.90;;;;;;5067172;28;20106;-77
2023/04/30 03:03:58;;;;;;;12.60;4.93;;;6.70;99.90;;;;;;5075340;28;20071;-62
2023/04/30 03:06:24;;;;;;;12.40;4.83;;;6.70;99.90;;;;;;5071380;28;20028;-62
2023/04/30 03:08:49;;;;;;;14.80;6.30;;;6.60;99.90;;;;;;5071903;28;20028;-62
2023/04/30 03:11:15;;;;;;;17.63;8.13;;;6.50;99.90;;;;;;5075310;28;20029;-62
2023/04/30 03:13:42;;;;;;;18.77;7.60;;;6.50;99.90;;;;;;5066709;28;20020;-62
2023/04/30 03:16:08;;;;;;;16.38;6.82;;;6.50;99.90;;;;;;5069277;28;20028;-62
2023/04/30 03:18:33;;;;;;;12.20;6.63;;;6.50;99.90;;;;;;5074762;28;20032;-63
2023/04/30 03:20:59;;;;;;;14.50;6.73;;;6.30;99.90;;;;;;5068751;28;20371;-62
2023/04/30 03:23:28;;;;;;;9.97;4.80;;;6.20;99.90;;;;;;5061052;28;20020;-62
2023/04/30 03:25:53;;;;;;;11.25;5.45;;;6.20;99.90;;;;;;5074585;28;20411;-72
2023/04/30 03:28:19;;;;;;;10.73;6.97;;;6.10;99.90;;;;;;5069742;28;20025;-62
2023/04/30 03:30:46;;;;;;;15.77;7.37;;;6.10;99.90;;;;;;5074865;28;20084;-62
2023/04/30 03:33:11;;;;;;;13.02;7.65;;;6.10;99.90;;;;;;5073607;28;20025;-62
2023/04/30 03:35:37;;;;;;;11.83;6.10;;;6.00;99.90;;;;;;5073688;28;20077;-77
2023/04/30 03:38:03;;;;;;;9.73;5.80;;;5.90;99.90;;;;;;5070062;28;20119;-62
2023/04/30 03:40:28;;;;;;;13.33;6.37;;;5.90;99.90;;;;;;5074171;28;20020;-62
2023/04/30 03:42:54;;;;;;;10.40;5.37;;;5.80;99.90;;;;;;5067710;28;20028;-62
2023/04/30 03:45:20;;;;;;;11.25;6.35;;;5.80;99.90;;;;;;5072135;28;20025;-63
2023/04/30 03:47:46;;;;;;;9.77;5.50;;;5.80;99.90;;;;;;5057704;28;20334;-62
2023/04/30 03:50:12;;;;;;;13.10;6.57;;;5.80;99.90;;;;;;5071818;28;20024;-62
2023/04/30 03:52:38;;;;;;;10.93;5.80;;;5.80;99.90;;;;;;5074496;28;20025;-65
2023/04/30 03:55:04;;;;;;;14.77;7.60;;;5.80;99.90;;;;;;5071297;28;20025;-62
2023/04/30 03:57:31;;;;;;;11.73;5.25;;;5.80;99.90;;;;;;5068103;28;20033;-62
2023/04/30 03:59:57;;;;;;;7.82;5.18;;;5.80;99.90;;;;;;5062833;28;20082;-62
2023/04/30 04:02:22;;;;;;;8.80;5.37;;;5.70;99.90;;;;;;5073640;28;20110;-63
2023/04/30 04:04:50;;;;;;;15.10;6.10;;;5.80;99.90;;;;;;5073354;28;20458;-62
2023/04/30 04:07:15;;;;;;;13.43;6.72;;;5.80;99.90;;;;;;5072914;28;20032;-62
2023/04/30 04:09:41;;;;;;;14.83;6.10;;;5.80;99.90;;;;;;5073381;28;20037;-63
2023/04/30 04:12:07;;;;;;;21.03;6.30;;;5.80;99.90;;;;;;5073120;28;20028;-62
2023/04/30 04:14:33;;;;;;;25.73;7.20;;;5.90;99.90;;;;;;5074298;28;20056;-62
2023/04/30 04:17:00;;;;;;;24.37;7.50;;;5.90;99.90;;;;;;5074096;28;20461;-62
2023/04/30 04:19:26;;;;;;;29.05;7.38;;;5.90;99.90;;;;;;5073302;28;20017;-63
2023/04/30 04:21:52;;;;;;;12.65;7.38;;;5.90;99.90;;;;;;5065488;28;20025;-62
2023/04/30 04:24:17;;;;;;;11.57;6.47;;;6.00;99.90;;;;;;5074571;28;20059;-62
2023/04/30 04:26:43;;;;;;;13.13;7.10;;;6.00;99.90;;;;;;5073043;28;20052;-62
2023/04/30 04:29:11;;;;;;;14.40;7.27;;;6.00;99.90;;;;;;5074306;28;20063;-63
2023/04/30 04:31:37;;;;;;;14.48;6.90;;;6.10;99.90;;;;;;5070690;28;20103;-63
2023/04/30 04:34:03;;;;;;;25.75;6.97;;;6.10;99.90;;;;;;5075199;28;20311;-62
2023/04/30 04:36:30;;;;;;;8.32;5.32;;;6.20;99.90;;;;;;5075201;28;20427;-62
2023/04/30 04:38:56;;;;;;;14.30;7.22;;;6.10;99.90;;;;;;5076498;28;20056;-63
2023/04/30 04:41:24;;;;;;;19.98;9.82;;;6.10;99.90;;;;;;5076994;28;20075;-63
2023/04/30 04:43:50;;;;;;;16.50;8.40;;;6.10;99.90;;;;;;5075068;28;20427;-77
2023/04/30 04:46:16;;;;;;;16.92;8.52;;;6.10;99.90;;;;;;5077219;28;20036;-62
2023/04/30 04:48:42;;;;;;;16.20;8.50;;;6.10;99.90;;;;;;5075741;28;20036;-62
2023/04/30 04:51:09;;;;;;;15.77;7.57;;;6.20;99.90;;;;;;5073327;28;20028;-62
2023/04/30 04:53:35;;;;;;;22.13;8.20;;;6.20;99.90;;;;;;5074718;28;20032;-63
2023/04/30 04:56:01;;;;;;;17.37;8.33;;;6.30;99.90;;;;;;5077802;28;20024;-63
2023/04/30 04:58:27;;;;;;;14.90;8.47;;;6.40;99.90;;;;;;5062988;28;20029;-63
2023/04/30 05:00:53;;;;;;;16.80;8.53;;;6.40;99.90;;;;;;5071704;28;20024;-77
2023/04/30 05:03:19;;;;;;;15.00;7.93;;;6.40;99.90;;;;;;5069410;28;20450;-64
2023/04/30 05:05:45;;;;;;;18.23;7.88;;;6.50;99.90;;;;;;5075462;28;20268;-62
2023/04/30 05:08:11;;;;;;;17.57;8.37;;;6.50;99.90;;;;;;5075869;28;20049;-62
2023/04/30 05:10:37;;;;;;;23.70;9.33;;;6.60;99.90;;;;;;5076237;28;20036;-80
2023/04/30 05:13:02;;;;;;;16.77;9.13;;;6.70;99.90;;;;;;5058812;28;20036;-63
2023/04/30 05:15:28;;;;;;;15.97;8.03;;;6.70;99.90;;;;;;5077012;28;20064;-63
2023/04/30 05:17:54;;;;;;;15.20;7.73;;;6.70;99.90;;;;;;5074684;28;20078;-63
2023/04/30 05:20:20;;;;;;;15.90;8.43;;;6.80;99.90;;;;;;5077080;28;20111;-64
2023/04/30 05:22:45;;;;;;;19.73;7.97;;;6.80;99.90;;;;;;5065583;28;20029;-78
2023/04/30 05:25:11;;;;;;;17.63;8.53;;;6.90;99.90;;;;;;5071848;28;20036;-63
2023/04/30 05:27:37;;;;;;;18.03;8.70;;;7.10;99.90;;;;;;5068831;28;20025;-62
2023/04/30 05:30:03;;;;;;;16.57;8.30;;;7.30;99.90;;;;;;5064139;28;20079;-78
2023/04/30 05:32:28;;;;;;;19.77;8.50;;;7.30;99.90;;;;;;5070077;28;20393;-63
2023/04/30 05:34:54;;;;;;;17.13;8.40;;;7.30;99.90;;;;;;5071755;28;20032;-78
2023/04/30 05:37:21;;;;;;;15.97;7.77;;;7.30;99.90;;;;;;5068177;28;20431;-63
2023/04/30 05:39:47;;;;;;;14.30;7.90;;;7.30;99.90;;;;;;5068470;28;20021;-63
2023/04/30 05:42:13;;;;;;;14.17;7.53;;;7.30;99.90;;;;;;5068094;28;20059;-63
2023/04/30 05:44:40;;;;;;;12.17;6.93;;;7.40;99.90;;;;;;5069523;28;20348;-63
2023/04/30 05:47:05;;;;;;;14.32;7.30;;;7.50;99.90;;;;;;5069655;28;20431;-77
2023/04/30 05:49:31;;;;;;;10.97;6.77;;;7.50;99.90;;;;;;5072237;28;20029;-63
2023/04/30 05:51:57;;;;;;;10.27;6.53;;;7.60;99.90;;;;;;5064437;28;20404;-63
2023/04/30 05:54:22;;;;;;;11.80;6.80;;;7.60;99.90;;;;;;5066314;28;20175;-63
2023/04/30 05:56:48;;;;;;;15.07;7.23;;;7.70;99.90;;;;;;5063093;28;20043;-67
2023/04/30 05:59:14;;;;;;;12.27;6.70;;;7.90;99.90;;;;;;5068006;28;20107;-63
2023/04/30 06:01:40;;;;;;;14.53;6.20;;;7.90;99.90;;;;;;5063505;28;20028;-63
2023/04/30 06:04:08;;;;;;;12.35;6.80;;;8.00;99.90;;;;;;5070747;28;20039;-62
2023/04/30 06:06:33;;;;;;;13.30;6.07;;;8.10;99.90;;;;;;5071499;28;20044;-63
2023/04/30 06:08:59;;;;;;;10.27;5.77;;;8.20;99.90;;;;;;5068732;28;20319;-63
2023/04/30 06:11:26;;;;;;;16.97;5.90;;;8.20;99.90;;;;;;5062545;28;20086;-62
2023/04/30 06:13:51;;;;;;;12.15;5.10;;;8.30;99.90;;;;;;5071226;28;20019;-63
2023/04/30 06:16:17;;;;;;;11.27;5.80;;;8.30;99.90;;;;;;5067924;28;20107;-79
2023/04/30 06:18:43;;;;;;;11.07;6.07;;;8.40;99.90;;;;;;5069267;28;20095;-63
2023/04/30 06:21:09;;;;;;;8.55;5.32;;;8.50;99.90;;;;;;5065390;28;20028;-62
2023/04/30 06:23:35;;;;;;;12.37;4.97;;;8.50;99.90;;;;;;5065090;28;20032;-62
2023/04/30 06:26:00;;;;;;;12.73;5.67;;;8.60;99.90;;;;;;5063776;28;20029;-63
2023/04/30 06:28:26;;;;;;;9.00;5.70;;;8.70;99.90;;;;;;5071420;28;20056;-63
2023/04/30 06:30:53;;;;;;;12.17;5.13;;;8.80;99.90;;;;;;5071299;28;20405;-63
2023/04/30 06:33:20;;;;;;;10.02;5.78;;;8.90;99.90;;;;;;5074733;28;20031;-63
2023/04/30 06:35:46;;;;;;;10.48;5.45;;;9.00;99.90;;;;;;5075693;28;20042;-62
2023/04/30 06:38:12;;;;;;;17.13;6.15;;;9.00;99.90;;;;;;5073924;28;20037;-62
2023/04/30 06:40:38;;;;;;;8.50;5.68;;;9.10;99.90;;;;;;5073034;28;20028;-62
2023/04/30 06:43:04;;;;;;;9.75;5.47;;;9.20;99.90;;;;;;5067289;28;20040;-78
2023/04/30 06:45:30;;;;;;;13.30;5.90;;;9.30;99.90;;;;;;5072649;28;20170;-63
2023/04/30 06:47:56;;;;;;;8.53;5.40;;;9.50;99.90;;;;;;5075585;28;20052;-62
2023/04/30 06:50:22;;;;;;;9.77;4.57;;;9.50;99.90;;;;;;5073515;28;20052;-63
2023/04/30 06:52:48;;;;;;;14.27;5.07;;;9.50;99.90;;;;;;5075473;28;20052;-63
2023/04/30 06:55:13;;;;;;;8.47;4.30;;;9.50;99.90;;;;;;5071702;28;20031;-62
2023/04/30 06:57:39;;;;;;;9.80;5.70;;;9.50;99.90;;;;;;5075226;28;20284;-63
2023/04/30 07:00:06;;;;;;;7.60;4.23;;;9.70;99.90;;;;;;5074545;28;20024;-62
2023/04/30 07:02:32;;;;;;;9.40;5.30;;;9.70;99.90;;;;;;5071922;28;20020;-62
2023/04/30 07:04:57;;;;;;;11.23;4.57;;;9.80;99.90;;;;;;5075443;28;20036;-63
2023/04/30 07:07:23;;;;;;;8.80;4.17;;;9.90;99.90;;;;;;5074034;28;20359;-62
2023/04/30 07:09:49;;;;;;;7.97;4.50;;;10.00;99.90;;;;;;5075035;28;20050;-63
2023/04/30 07:12:15;;;;;;;9.43;3.88;;;10.10;99.90;;;;;;5073797;28;20416;-63
2023/04/30 07:14:41;;;;;;;8.43;3.63;;;10.30;99.90;;;;;;5074618;28;20021;-62
2023/04/30 07:17:07;;;;;;;4.20;3.40;;;10.50;99.90;;;;;;5075261;28;20039;-62
2023/04/30 07:19:32;;;;;;;4.50;3.13;;;10.70;99.90;;;;;;5065519;28;20027;-63
2023/04/30 07:21:58;;;;;;;5.40;2.90;;;10.90;99.90;;;;;;5074475;28;20040;-64
2023/04/30 07:24:24;;;;;;;7.27;3.73;;;11.30;99.90;;;;;;5073946;28;20041;-63
2023/04/30 07:26:49;;;;;;;9.10;3.20;;;11.60;99.90;;;;;;5069566;28;20052;-64
2023/04/30 07:29:15;;;;;;;5.07;3.23;;;11.80;99.90;;;;;;5074764;28;20541;-62
2023/04/30 07:31:41;;;;;;;4.77;3.07;;;12.10;99.90;;;;;;5101265;28;20305;-63
2023/04/30 07:34:07;;;;;;;6.40;3.37;;;12.30;99.90;;;;;;5074252;28;20033;-63
2023/04/30 07:36:33;;;;;;;5.82;3.00;;;12.50;99.90;;;;;;5067146;28;20025;-63
2023/04/30 07:38:59;;;;;;;4.97;2.77;;;12.80;99.90;;;;;;5073366;28;20028;-63
2023/04/30 07:41:25;;;;;;;6.40;2.87;;;13.00;99.90;;;;;;5073947;28;20028;-63
2023/04/30 07:43:50;;;;;;;4.17;2.60;;;13.10;99.90;;;;;;5073753;28;20052;-77
2023/04/30 07:46:16;;;;;;;4.17;2.73;;;13.40;99.90;;;;;;5073395;28;20025;-64
2023/04/30 07:48:42;;;;;;;7.30;3.13;;;13.50;99.90;;;;;;5067098;28;20428;-63
2023/04/30 07:51:08;;;;;;;9.17;2.87;;;13.50;99.90;;;;;;5054883;28;20107;-64
2023/04/30 07:53:33;;;;;;;3.63;2.40;;;13.70;99.90;;;;;;5057847;28;20035;-64
2023/04/30 07:55:59;;;;;;;6.23;2.60;;;13.70;99.90;;;;;;5068427;28;20031;-63
2023/04/30 07:58:24;;;;;;;3.77;2.40;;;13.60;99.90;;;;;;5067328;28;20017;-64
2023/04/30 08:00:50;;;;;;;4.40;2.43;;;13.80;99.90;;;;;;5067636;28;20032;-63
2023/04/30 08:03:16;;;;;;;5.43;2.30;;;13.90;99.90;;;;;;5062772;28;20036;-64
2023/04/30 08:05:41;;;;;;;6.07;2.20;;;14.00;99.90;;;;;;5063258;28;20347;-63
2023/04/30 08:08:07;;;;;;;4.10;1.97;;;13.80;99.90;;;;;;5060779;28;20405;-63
2023/04/30 08:10:33;;;;;;;3.53;2.00;;;13.70;99.90;;;;;;5062010;28;20076;-76
2023/04/30 08:12:59;;;;;;;4.90;2.60;;;13.70;99.90;;;;;;5059036;28;20438;-63
2023/04/30 08:15:25;;;;;;;4.57;2.40;;;13.80;99.90;;;;;;5070776;28;20115;-63
2023/04/30 08:17:51;;;;;;;4.90;2.38;;;13.80;99.90;;;;;;5065777;28;20024;-64
2023/04/30 08:20:17;;;;;;;4.20;2.97;;;13.90;99.90;;;;;;5063018;28;20043;-64
2023/04/30 08:22:44;;;;;;;5.10;3.17;;;13.90;99.90;;;;;;5065932;28;20388;-64
2023/04/30 08:25:11;;;;;;;7.00;3.17;;;13.70;99.90;;;;;;5067922;28;20036;-62
2023/04/30 08:27:36;;;;;;;3.80;2.35;;;13.60;99.90;;;;;;5072671;28;20115;-73
2023/04/30 08:30:02;;;;;;;5.87;3.17;;;13.80;99.90;;;;;;5066012;28;20397;-77
2023/04/30 08:32:29;;;;;;;7.10;2.50;;;13.90;99.90;;;;;;5063662;28;20041;-74
2023/04/30 08:34:55;;;;;;;4.22;2.30;;;13.90;99.90;;;;;;5079157;28;20412;-71
2023/04/30 08:37:20;;;;;;;9.70;2.53;;;13.90;99.90;;;;;;5073044;28;20035;-74
2023/04/30 08:39:46;;;;;;;4.33;2.27;;;13.80;99.90;;;;;;5072535;28;20020;-77
2023/04/30 08:42:14;;;;;;;4.00;2.37;;;13.90;99.90;;;;;;5073418;28;20412;-66
2023/04/30 08:44:42;;;;;;;3.90;2.30;;;13.80;99.90;;;;;;5073171;28;20016;-75
2023/04/30 08:47:12;;;;;;;3.58;2.03;;;13.70;99.90;;;;;;5106153;28;20729;-73
2023/04/30 08:49:38;;;;;;;5.80;2.58;;;13.80;99.90;;;;;;5074185;28;20032;-78
2023/04/30 08:52:04;;;;;;;3.67;2.17;;;13.70;99.90;;;;;;5072856;28;20033;-76
2023/04/30 08:54:33;;;;;;;6.03;2.77;;;13.70;99.90;;;;;;5071737;28;20020;-71
2023/04/30 08:56:59;;;;;;;5.13;2.17;;;13.90;99.90;;;;;;5086145;28;20351;-76
2023/04/30 08:59:25;;;;;;;3.07;2.37;;;14.00;99.90;;;;;;5072926;28;20025;-75
2023/04/30 09:01:50;;;;;;;2.50;1.93;;;14.10;99.90;;;;;;5070411;28;20032;-69
2023/04/30 09:04:16;;;;;;;4.50;2.27;;;14.10;99.90;;;;;;5072768;28;20475;-75
2023/04/30 09:06:42;;;;;;;2.83;1.77;;;14.20;99.90;;;;;;5074534;28;20028;-69
2023/04/30 09:09:13;;;;;;;2.42;1.83;;;14.10;99.90;;;;;;5072250;28;20028;-66
2023/04/30 09:11:39;;;;;;;3.00;1.90;;;14.00;99.90;;;;;;5071266;28;20036;-71
2023/04/30 09:14:05;;;;;;;6.10;2.10;;;13.90;99.90;;;;;;5073711;28;20024;-72
2023/04/30 09:16:48;;;;;;;3.83;1.80;;;13.80;99.90;;;;;;5072831;28;20020;-75
2023/04/30 09:19:30;;;;;;;4.72;2.40;;;14.30;99.90;;;;;;5073657;28;20407;-75
2023/04/30 09:21:56;;;;;;;2.92;2.05;;;14.40;99.90;;;;;;5075275;28;20052;-74
2023/04/30 09:24:23;;;;;;;2.20;1.50;;;14.50;99.90;;;;;;5076144;28;20060;-74
2023/04/30 09:26:50;;;;;;;4.93;1.88;;;14.60;99.90;;;;;;5066478;28;20090;-74
2023/04/30 09:29:16;;;;;;;4.68;1.70;;;14.60;99.90;;;;;;5089214;28;20045;-63
2023/04/30 09:31:46;;;;;;;4.17;1.83;;;14.80;99.90;;;;;;5068727;28;20074;-63
2023/04/30 09:34:12;;;;;;;3.60;1.40;;;14.70;99.90;;;;;;5067397;28;20043;-63
2023/04/30 09:36:53;;;;;;;4.22;1.80;;;14.60;99.90;;;;;;5074216;28;20025;-63
2023/04/30 09:39:19;;;;;;;2.45;1.63;;;14.60;99.90;;;;;;5076488;28;20383;-64
2023/04/30 09:41:45;;;;;;;3.95;1.90;;;14.60;99.90;;;;;;5076923;28;20029;-64
2023/04/30 09:44:34;;;;;;;3.70;1.30;;;14.60;99.90;;;;;;5077098;28;20055;-64
2023/04/30 09:47:00;;;;;;;3.85;1.70;;;15.00;99.90;;;;;;5076691;28;20087;-63
2023/04/30 09:49:26;;;;;;;3.77;1.73;;;15.10;99.90;;;;;;5069232;28;20037;-74
2023/04/30 09:51:55;;;;;;;5.95;1.67;;;15.00;99.90;;;;;;5065359;28;20024;-64
2023/04/30 09:54:26;;;;;;;4.85;1.60;;;15.00;99.90;;;;;;5066200;28;20354;-64
2023/04/30 09:56:55;;;;;;;3.83;1.40;;;15.20;99.90;;;;;;5069304;28;20082;-63
2023/04/30 09:59:34;;;;;;;2.95;1.50;;;15.20;99.90;;;;;;5072786;28;20032;-74
2023/04/30 10:02:02;;;;;;;5.10;1.58;;;15.30;99.90;;;;;;5067723;28;20420;-64
2023/04/30 10:04:34;;;;;;;2.60;1.80;;;15.20;99.90;;;;;;5071406;28;20082;-75
2023/04/30 10:07:21;;;;;;;3.63;1.60;;;15.30;99.90;;;;;;5074530;28;20032;-64
2023/04/30 10:09:58;;;;;;;4.43;2.08;;;15.30;99.90;;;;;;5075372;28;20114;-64
2023/04/30 10:12:30;;;;;;;6.10;1.80;;;15.10;99.90;;;;;;5075049;28;20044;-63
2023/04/30 10:15:12;;;;;;;4.25;2.05;;;15.20;99.90;;;;;;5074618;28;20024;-63
2023/04/30 10:17:40;;;;;;;3.42;1.95;;;15.10;99.90;;;;;;5072332;28;20030;-64
2023/04/30 10:20:08;;;;;;;2.75;1.50;;;15.20;99.90;;;;;;5075463;28;20365;-64
2023/04/30 10:22:35;;;;;;;3.58;1.85;;;15.40;99.90;;;;;;5073979;28;20031;-64
2023/04/30 10:25:01;;;;;;;4.40;1.70;;;15.50;99.90;;;;;;5074444;28;20119;-65
2023/04/30 10:27:29;;;;;;;4.03;1.77;;;15.80;99.90;;;;;;5074430;28;20442;-64
2023/04/30 10:29:54;;;;;;;3.38;1.20;;;15.80;99.90;;;;;;5071875;28;20045;-64
2023/04/30 10:32:22;;;;;;;3.50;1.63;;;15.70;99.90;;;;;;5071099;28;20028;-64
2023/04/30 10:35:26;;;;;;;5.20;1.95;;;15.80;99.90;;;;;;5071650;28;20028;-64
2023/04/30 10:38:03;;;;;;;3.83;1.85;;;16.10;99.90;;;;;;5071942;28;20052;-65
2023/04/30 10:40:34;;;;;;;3.80;1.48;;;16.00;99.90;;;;;;5108028;28;20124;-64
2023/04/30 10:43:00;;;;;;;1.70;1.60;;;16.10;99.90;;;;;;5075997;28;20078;-75
2023/04/30 10:45:42;;;;;;;4.30;1.63;;;16.10;99.90;;;;;;5075644;28;20028;-64
2023/04/30 10:48:09;;;;;;;2.22;1.40;;;16.10;99.90;;;;;;5073069;28;20029;-64
2023/04/30 10:50:45;;;;;;;4.20;1.75;;;16.10;99.90;;;;;;5075752;28;20099;-74
2023/04/30 10:53:18;;;;;;;3.75;1.80;;;16.30;99.90;;;;;;5072123;28;20040;-64
2023/04/30 10:56:07;;;;;;;3.72;2.20;;;16.30;99.90;;;;;;5069683;28;20415;-64
2023/04/30 10:58:40;;;;;;;3.33;1.75;;;16.30;99.90;;;;;;5068307;28;20043;-64
2023/04/30 11:01:10;;;;;;;4.32;2.03;;;16.40;99.90;;;;;;5069149;28;20438;-63
2023/04/30 11:03:39;;;;;;;3.67;1.90;;;16.40;99.90;;;;;;5060411;28;20037;-64
2023/04/30 11:06:13;;;;;;;5.63;2.17;;;16.40;99.90;;;;;;5063502;28;20040;-64
2023/04/30 11:08:44;;;;;;;2.65;1.95;;;16.50;99.90;;;;;;5072072;28;20063;-64
2023/04/30 11:11:11;;;;;;;3.58;1.90;;;16.70;99.90;;;;;;5064582;28;20025;-64
2023/04/30 11:13:56;;;;;;;2.58;2.10;;;16.70;99.90;;;;;;5063100;28;20036;-64
2023/04/30 11:16:33;;;;;;;5.60;2.47;;;16.70;99.90;;;;;;5063005;28;20028;-64
2023/04/30 11:19:13;;;;;;;2.97;1.90;;;16.60;99.90;;;;;;5072926;28;20423;-67
2023/04/30 11:22:04;;;;;;;5.93;2.45;;;16.50;99.90;;;;;;5070935;28;20071;-66
2023/04/30 11:24:52;;;;;;;5.57;2.33;;;16.40;99.90;;;;;;5067057;28;20016;-63
2023/04/30 11:27:23;;;;;;;2.53;1.63;;;16.50;99.90;;;;;;5073649;28;20451;-63
2023/04/30 11:29:50;;;;;;;3.83;1.77;;;16.50;99.90;;;;;;5070909;28;20053;-63
2023/04/30 11:32:21;;;;;;;7.70;1.90;;;16.40;99.90;;;;;;5072163;28;20032;-75
2023/04/30 11:34:47;;;;;;;4.07;2.08;;;16.60;99.90;;;;;;5069226;28;20311;-64
2023/04/30 11:37:17;;;;;;;;;;;16.70;99.90;;;;;;5072073;28;20025;-75
2023/04/30 11:39:44;;;;;;;3.65;1.50;;;16.70;99.90;;;;;;5071657;28;19919;-64
2023/04/30 11:42:14;;;;;;;5.88;2.10;;;16.80;99.90;;;;;;5070217;28;20462;-64
2023/04/30 11:44:40;;;;;;;6.38;2.13;;;16.90;99.90;;;;;;5073338;28;20070;-66
2023/04/30 11:47:06;;;;;;;7.27;2.67;;;17.00;99.90;;;;;;5065111;28;20024;-75
2023/04/30 11:49:32;;;;;;;4.90;2.23;;;17.10;99.90;;;;;;5069332;28;20039;-64
2023/04/30 11:51:58;;;;;;;5.18;2.67;;;16.80;99.90;;;;;;5070009;28;20024;-65
2023/04/30 11:54:24;;;;;;;3.80;2.03;;;16.70;99.90;;;;;;5068899;28;20028;-74
2023/04/30 11:56:50;;;;;;;3.70;2.28;;;16.20;99.90;;;;;;5072700;28;20315;-66
2023/04/30 11:59:16;;;;;;;6.00;2.53;;;16.10;99.90;;;;;;5062490;28;20036;-65
2023/04/30 12:01:43;;;;;;;11.35;3.42;;;16.10;99.90;;;;;;5061030;28;20060;-63
2023/04/30 12:04:08;;;;;;;6.05;2.47;;;16.00;99.90;;;;;;5068782;28;20442;-65
2023/04/30 12:06:34;;;;;;;8.27;2.83;;;16.00;99.90;;;;;;5073530;28;20024;-63
2023/04/30 12:09:07;;;;;;;9.25;2.63;;;15.70;99.90;;;;;;5073645;28;20020;-62
2023/04/30 12:11:34;;;;;;;5.28;2.67;;;15.30;99.90;;;;;;5073017;28;20301;-63
2023/04/30 12:14:03;;;;;;;;;;;15.20;99.90;;;;;;5068497;28;20032;-63
2023/04/30 12:16:48;;;;;;;8.55;2.90;;;15.30;99.90;;;;;;5069835;28;19904;-64
2023/04/30 12:19:15;;;;;;;8.30;2.42;;;15.40;99.90;;;;;;5067040;28;20424;-64
2023/04/30 12:21:43;;;;;;;8.57;2.72;;;15.30;99.90;;;;;;5069174;28;20024;-64
2023/04/30 12:24:17;;;;;;;10.07;2.97;;;15.30;99.90;;;;;;5066492;28;20029;-64
2023/04/30 12:26:44;;;;;;;4.78;2.53;;;15.50;99.90;;;;;;5071949;28;20028;-82
2023/04/30 12:29:13;;;;;;;8.65;3.00;;;15.20;99.90;;;;;;5072300;28;20025;-62
2023/04/30 12:31:40;;;;;;;6.50;2.55;;;15.00;99.90;;;;;;5072231;28;20109;-63
2023/04/30 12:34:11;;;;;;;7.22;2.88;;;15.10;99.90;;;;;;5070341;28;20162;-75
2023/04/30 12:36:41;;;;;;;7.95;2.95;;;15.30;99.90;;;;;;5072218;28;20353;-77
2023/04/30 12:39:17;;;;;;;9.63;2.15;;;15.40;99.90;;;;;;5069698;28;20700;-64
2023/04/30 12:41:47;;;;;;;7.67;2.80;;;15.30;99.90;;;;;;5072333;28;20035;-64
2023/04/30 12:44:22;;;;;;;4.97;1.70;;;15.40;99.90;;;;;;5072609;28;20025;-63
2023/04/30 12:46:49;;;;;;;5.93;3.05;;;15.30;99.90;;;;;;5067677;28;20044;-63
2023/04/30 12:49:26;;;;;;;5.32;2.45;;;15.50;99.90;;;;;;5071002;28;20032;-64
2023/04/30 12:51:58;;;;;;;8.90;2.90;;;15.40;99.90;;;;;;5072194;28;20028;-63
2023/04/30 12:54:25;;;;;;;5.55;2.40;;;15.50;99.90;;;;;;5072963;28;20032;-77